Time;durP1;ratioP1;P1;durP2;ratioP2;P2;SDS_P1;SDS_P2;PMS_P1;PMS_P2;Temp;Humidity;BMP_temperature;BMP_pressure;BME280_temperature;BME280_humidity;BME280_pressure;Samples;Min_cycle;Max_cycle;Signal;HPM_P1;HPM_P2
2022/03/19 00:01:08;;;;;;;15.18;9.88;;;;;;;;;;143743;592;45023;-65
2022/03/19 00:03:35;;;;;;;15.27;9.85;;;;;;;;;;143735;637;47018;-65
2022/03/19 00:06:02;;;;;;;13.65;9.32;;;;;;;;;;143742;562;46012;-66
2022/03/19 00:08:29;;;;;;;15.77;10.00;;;;;;;;;;143743;574;45019;-65
2022/03/19 00:10:56;;;;;;;17.33;9.90;;;;;;;;;;143744;571;46022;-65
2022/03/19 00:13:23;;;;;;;14.25;9.35;;;;;;;;;;143740;607;47020;-66
2022/03/19 00:15:50;;;;;;;15.15;10.15;;;;;;;;;;143740;576;46013;-66
2022/03/19 00:18:17;;;;;;;14.02;8.88;;;;;;;;;;143743;566;46040;-66
2022/03/19 00:20:44;;;;;;;13.30;9.60;;;;;;;;;;143746;657;46022;-66
2022/03/19 00:23:11;;;;;;;14.90;8.38;;;;;;;;;;143739;570;47019;-66
2022/03/19 00:25:38;;;;;;;14.98;9.50;;;;;;;;;;143738;625;47012;-66
2022/03/19 00:28:05;;;;;;;15.43;8.30;;;;;;;;;;143738;615;45912;-65
2022/03/19 00:30:32;;;;;;;13.15;8.60;;;;;;;;;;143745;606;45023;-66
2022/03/19 00:33:00;;;;;;;14.93;10.52;;;;;;;;;;143742;573;47018;-65
2022/03/19 00:35:27;;;;;;;12.48;9.95;;;;;;;;;;143741;565;46012;-66
2022/03/19 00:37:54;;;;;;;13.27;7.90;;;;;;;;;;143743;571;45019;-65
2022/03/19 00:40:22;;;;;;;18.90;11.12;;;;;;;;;;143745;577;46022;-66
2022/03/19 00:42:49;;;;;;;13.48;9.02;;;;;;;;;;143741;584;47020;-65
2022/03/19 00:45:17;;;;;;;21.42;11.90;;;;;;;;;;143741;713;47037;-66
2022/03/19 00:47:44;;;;;;;13.20;8.20;;;;;;;;;;143742;572;45018;-65
2022/03/19 00:50:11;;;;;;;14.52;9.88;;;;;;;;;;143745;598;45022;-66
2022/03/19 00:52:38;;;;;;;17.15;11.23;;;;;;;;;;143732;608;47020;-66
2022/03/19 00:55:06;;;;;;;16.25;9.48;;;;;;;;;;143743;572;46010;-66
2022/03/19 00:57:43;;;;;;;10.88;8.13;;;;;;;;;;143744;566;45910;-65
2022/03/19 01:00:12;;;;;;;14.63;9.65;;;;;;;;;;143744;569;45024;-65
2022/03/19 01:02:44;;;;;;;12.57;9.25;;;;;;;;;;143743;609;47018;-66
2022/03/19 01:05:12;;;;;;;15.55;9.88;;;;;;;;;;143747;563;46921;-66
2022/03/19 01:07:47;;;;;;;14.70;9.35;;;;;;;;;;143738;579;45911;-66
2022/03/19 01:10:15;;;;;;;;;;;;;;;;;;143749;979;45023;-66
2022/03/19 01:12:42;;;;;;;13.18;9.25;;;;;;;;;;143746;580;47018;-66
2022/03/19 01:15:10;;;;;;;17.67;10.77;;;;;;;;;;143742;657;46018;-66
2022/03/19 01:17:38;;;;;;;16.10;9.95;;;;;;;;;;143737;716;45018;-65
2022/03/19 01:20:06;;;;;;;16.45;9.88;;;;;;;;;;143746;612;46022;-65
2022/03/19 01:22:34;;;;;;;17.40;10.57;;;;;;;;;;143744;579;47019;-66
2022/03/19 01:25:04;;;;;;;16.12;9.85;;;;;;;;;;143741;629;46010;-65
2022/03/19 01:27:33;;;;;;;14.23;9.75;;;;;;;;;;143744;657;45018;-65
2022/03/19 01:30:00;;;;;;;13.18;9.63;;;;;;;;;;143745;569;45023;-66
2022/03/19 01:32:27;;;;;;;13.45;9.18;;;;;;;;;;143739;575;47021;-66
2022/03/19 01:34:55;;;;;;;15.02;8.65;;;;;;;;;;143742;564;46026;-66
2022/03/19 01:37:23;;;;;;;14.77;9.48;;;;;;;;;;143742;569;45019;-65
2022/03/19 01:39:53;;;;;;;14.60;8.95;;;;;;;;;;143745;577;46022;-67
2022/03/19 01:42:29;;;;;;;14.68;10.32;;;;;;;;;;143737;608;47018;-66
2022/03/19 01:44:57;;;;;;;15.88;10.05;;;;;;;;;;143742;570;46010;-66
2022/03/19 01:47:26;;;;;;;17.42;9.45;;;;;;;;;;143742;571;45909;-65
2022/03/19 01:49:53;;;;;;;14.48;9.65;;;;;;;;;;143744;577;46010;-65
2022/03/19 01:52:20;;;;;;;13.70;9.95;;;;;;;;;;143740;685;47020;-67
2022/03/19 01:54:51;;;;;;;14.40;9.40;;;;;;;;;;143742;588;46010;-66
2022/03/19 01:57:23;;;;;;;17.17;9.38;;;;;;;;;;143742;589;45018;-65
2022/03/19 01:59:51;;;;;;;15.73;8.95;;;;;;;;;;143745;567;46023;-65
2022/03/19 02:02:19;;;;;;;13.68;8.05;;;;;;;;;;143742;580;47018;-66
2022/03/19 02:04:46;;;;;;;19.95;9.38;;;;;;;;;;143740;591;47010;-65
2022/03/19 02:07:13;;;;;;;11.23;7.78;;;;;;;;;;143738;607;45019;-66
2022/03/19 02:09:40;;;;;;;10.60;7.70;;;;;;;;;;143743;569;46010;-66
2022/03/19 02:12:09;;;;;;;9.68;7.20;;;;;;;;;;143741;574;47018;-65
2022/03/19 02:14:39;;;;;;;12.02;7.03;;;;;;;;;;143741;617;46920;-66
2022/03/19 02:17:09;;;;;;;11.90;7.87;;;;;;;;;;143741;581;46018;-67
2022/03/19 02:19:50;;;;;;;17.48;8.07;;;;;;;;;;143745;592;46022;-66
2022/03/19 02:22:19;;;;;;;11.45;7.93;;;;;;;;;;143742;626;47020;-66
2022/03/19 02:27:31;;;;;;;13.50;8.40;;;;;;;;;;143744;704;45018;-65
2022/03/19 02:29:59;;;;;;;14.23;8.52;;;;;;;;;;143746;607;45023;-65
2022/03/19 02:32:26;;;;;;;11.90;7.18;;;;;;;;;;143734;583;47020;-66
2022/03/19 02:34:54;;;;;;;15.23;9.77;;;;;;;;;;143741;641;46010;-66
2022/03/19 02:37:21;;;;;;;12.37;8.07;;;;;;;;;;143743;742;45019;-66
2022/03/19 02:39:49;;;;;;;16.95;10.23;;;;;;;;;;143744;605;47022;-65
2022/03/19 02:42:18;;;;;;;13.13;7.85;;;;;;;;;;143741;582;47020;-66
2022/03/19 02:44:46;;;;;;;20.00;10.45;;;;;;;;;;143741;666;46028;-65
2022/03/19 02:47:13;;;;;;;16.60;8.50;;;;;;;;;;143741;569;45018;-65
2022/03/19 02:49:40;;;;;;;14.38;9.40;;;;;;;;;;143745;576;46022;-66
2022/03/19 02:52:07;;;;;;;14.90;10.27;;;;;;;;;;143739;575;47019;-65
2022/03/19 02:54:34;;;;;;;17.65;10.18;;;;;;;;;;143739;580;47010;-66
2022/03/19 02:57:01;;;;;;;16.67;10.20;;;;;;;;;;143738;608;45018;-65
2022/03/19 02:59:34;;;;;;;15.00;9.90;;;;;;;;;;143744;600;45023;-65
2022/03/19 03:02:05;;;;;;;15.77;9.77;;;;;;;;;;143741;645;47021;-66
2022/03/19 03:04:33;;;;;;;17.67;9.38;;;;;;;;;;143742;633;46028;-66
2022/03/19 03:07:02;;;;;;;16.77;7.55;;;;;;;;;;143740;578;45019;-65
2022/03/19 03:09:31;;;;;;;11.18;8.23;;;;;;;;;;143743;602;46022;-66
2022/03/19 03:12:01;;;;;;;13.43;9.23;;;;;;;;;;143738;583;47018;-66
2022/03/19 03:14:28;;;;;;;13.20;8.13;;;;;;;;;;143739;594;47011;-65
2022/03/19 03:16:58;;;;;;;11.43;8.10;;;;;;;;;;143742;594;45912;-66
2022/03/19 03:19:25;;;;;;;17.77;9.95;;;;;;;;;;143745;603;45022;-66
2022/03/19 03:21:52;;;;;;;12.18;8.43;;;;;;;;;;143738;570;46019;-66
2022/03/19 03:24:19;;;;;;;15.85;9.18;;;;;;;;;;143741;564;46028;-66
2022/03/19 03:26:46;;;;;;;15.18;8.20;;;;;;;;;;143742;607;45018;-66
2022/03/19 03:29:14;;;;;;;16.08;10.00;;;;;;;;;;143745;575;45023;-66
2022/03/19 03:31:40;;;;;;;13.77;7.62;;;;;;;;;;143742;575;47018;-66
2022/03/19 03:34:07;;;;;;;16.50;8.07;;;;;;;;;;143741;564;46026;-66
2022/03/19 03:36:34;;;;;;;10.55;7.37;;;;;;;;;;143742;564;45019;-66
2022/03/19 03:39:02;;;;;;;13.90;9.10;;;;;;;;;;143744;599;45023;-66
2022/03/19 03:41:29;;;;;;;11.70;8.30;;;;;;;;;;143741;577;47020;-65
2022/03/19 03:43:56;;;;;;;15.43;8.48;;;;;;;;;;143741;628;46010;-66
2022/03/19 03:46:23;;;;;;;13.13;8.60;;;;;;;;;;143738;620;45019;-65
2022/03/19 03:48:50;;;;;;;14.40;9.18;;;;;;;;;;143745;581;46022;-65
2022/03/19 03:51:17;;;;;;;14.00;9.68;;;;;;;;;;143741;618;47019;-66
2022/03/19 03:53:45;;;;;;;14.25;9.00;;;;;;;;;;143742;703;46010;-65
2022/03/19 03:56:13;;;;;;;15.38;10.60;;;;;;;;;;143740;598;46018;-66
2022/03/19 03:58:40;;;;;;;15.93;10.27;;;;;;;;;;143745;651;45023;-66
2022/03/19 04:01:08;;;;;;;18.45;10.02;;;;;;;;;;143744;587;45021;-66
2022/03/19 04:03:35;;;;;;;15.25;9.30;;;;;;;;;;143741;606;47010;-65
2022/03/19 04:06:02;;;;;;;15.93;9.85;;;;;;;;;;143740;622;45019;-65
2022/03/19 04:08:29;;;;;;;13.98;7.80;;;;;;;;;;143744;589;46023;-66
2022/03/19 04:10:56;;;;;;;17.90;9.38;;;;;;;;;;143735;565;47018;-65
2022/03/19 04:13:23;;;;;;;12.05;7.10;;;;;;;;;;143742;579;47010;-66
2022/03/19 04:15:50;;;;;;;20.00;9.40;;;;;;;;;;143743;571;45019;-66
2022/03/19 04:18:17;;;;;;;11.95;7.93;;;;;;;;;;143744;606;45022;-67
2022/03/19 04:20:44;;;;;;;13.50;9.32;;;;;;;;;;143742;644;47019;-66
2022/03/19 04:23:11;;;;;;;16.42;9.45;;;;;;;;;;143742;667;46010;-66
2022/03/19 04:25:38;;;;;;;15.07;9.48;;;;;;;;;;143743;588;45018;-66
2022/03/19 04:28:06;;;;;;;12.52;8.82;;;;;;;;;;143746;603;45023;-66
2022/03/19 04:30:33;;;;;;;13.55;8.40;;;;;;;;;;143740;599;47018;-65
2022/03/19 04:33:01;;;;;;;14.75;9.63;;;;;;;;;;143741;578;46010;-66
2022/03/19 04:38:20;;;;;;;;;;;;;;;;;;143749;978;46022;-66
2022/03/19 04:40:49;;;;;;;16.83;9.95;;;;;;;;;;143747;585;47018;-65
2022/03/19 04:43:16;;;;;;;11.90;8.75;;;;;;;;;;143737;606;47010;-66
2022/03/19 04:45:44;;;;;;;17.37;11.15;;;;;;;;;;143739;629;45019;-67
2022/03/19 04:48:11;;;;;;;17.73;11.55;;;;;;;;;;143746;603;45022;-67
2022/03/19 04:50:39;;;;;;;19.30;11.20;;;;;;;;;;143741;608;47019;-68
2022/03/19 04:53:07;;;;;;;17.58;10.93;;;;;;;;;;143738;660;47010;-66
2022/03/19 04:55:35;;;;;;;19.55;10.70;;;;;;;;;;143740;659;45910;-66
2022/03/19 04:58:03;;;;;;;20.75;10.50;;;;;;;;;;143745;588;45023;-66
2022/03/19 05:00:31;;;;;;;11.75;8.07;;;;;;;;;;143735;585;47018;-66
2022/03/19 05:02:58;;;;;;;19.45;10.95;;;;;;;;;;143741;574;46010;-65
2022/03/19 05:05:25;;;;;;;16.17;9.75;;;;;;;;;;143738;723;46909;-65
2022/03/19 05:07:53;;;;;;;20.77;11.52;;;;;;;;;;143743;569;45023;-66
2022/03/19 05:13:05;;;;;;;12.45;9.02;;;;;;;;;;143738;580;47022;-66
2022/03/19 05:15:32;;;;;;;14.63;8.73;;;;;;;;;;143735;661;47018;-66
2022/03/19 05:17:59;;;;;;;16.70;9.55;;;;;;;;;;143743;605;45022;-65
2022/03/19 05:20:26;;;;;;;16.10;9.77;;;;;;;;;;143743;691;46019;-66
2022/03/19 05:22:53;;;;;;;15.77;11.52;;;;;;;;;;143734;595;47010;-66
2022/03/19 05:25:20;;;;;;;14.00;10.23;;;;;;;;;;143735;580;45911;-65
2022/03/19 05:27:47;;;;;;;17.75;11.35;;;;;;;;;;143743;711;46022;-66
2022/03/19 05:30:14;;;;;;;18.67;9.95;;;;;;;;;;143738;686;47018;-66
2022/03/19 05:32:42;;;;;;;13.77;8.93;;;;;;;;;;143737;715;46922;-66
2022/03/19 05:35:09;;;;;;;12.70;9.40;;;;;;;;;;143738;579;45913;-65
2022/03/19 05:37:37;;;;;;;14.27;8.68;;;;;;;;;;143742;599;45023;-65
2022/03/19 05:40:07;;;;;;;13.68;9.43;;;;;;;;;;143741;750;47018;-65
2022/03/19 05:42:34;;;;;;;23.17;12.98;;;;;;;;;;143739;602;46010;-67
2022/03/19 05:45:01;;;;;;;12.82;9.13;;;;;;;;;;143740;601;45019;-66
2022/03/19 05:47:28;;;;;;;17.80;10.90;;;;;;;;;;143742;567;45022;-65
2022/03/19 05:49:55;;;;;;;16.60;10.77;;;;;;;;;;143732;566;47019;-67
2022/03/19 05:52:22;;;;;;;19.35;11.63;;;;;;;;;;143739;589;47010;-66
2022/03/19 05:54:49;;;;;;;15.52;11.40;;;;;;;;;;143741;652;45018;-65
2022/03/19 05:57:16;;;;;;;16.62;11.73;;;;;;;;;;143743;573;45022;-66
2022/03/19 05:59:43;;;;;;;17.75;11.55;;;;;;;;;;143739;721;47021;-67
2022/03/19 06:02:10;;;;;;;14.48;10.30;;;;;;;;;;143740;564;46010;-66
2022/03/19 06:04:38;;;;;;;19.05;11.38;;;;;;;;;;143739;576;45911;-66
2022/03/19 06:07:05;;;;;;;23.90;10.07;;;;;;;;;;143743;597;46023;-67
2022/03/19 06:09:32;;;;;;;15.30;9.75;;;;;;;;;;143739;603;47018;-65
2022/03/19 06:11:58;;;;;;;17.48;11.90;;;;;;;;;;143738;578;47011;-66
2022/03/19 06:14:26;;;;;;;17.90;12.15;;;;;;;;;;143736;767;45019;-66
2022/03/19 06:16:53;;;;;;;18.23;10.65;;;;;;;;;;143744;653;46022;-66
2022/03/19 06:19:20;;;;;;;20.98;11.85;;;;;;;;;;143738;591;47019;-66
2022/03/19 06:21:47;;;;;;;12.95;9.10;;;;;;;;;;143739;569;46027;-66
2022/03/19 06:24:14;;;;;;;14.43;10.10;;;;;;;;;;143738;569;46010;-66
2022/03/19 06:26:40;;;;;;;16.45;10.77;;;;;;;;;;143742;609;45022;-66
2022/03/19 06:29:08;;;;;;;15.30;10.50;;;;;;;;;;143743;570;47018;-66
2022/03/19 06:31:35;;;;;;;17.45;9.65;;;;;;;;;;143739;679;46010;-66
2022/03/19 06:34:02;;;;;;;28.75;17.37;;;;;;;;;;143741;569;45018;-66
2022/03/19 06:39:14;;;;;;;52.78;29.08;;;;;;;;;;143737;569;45018;-65
2022/03/19 06:41:41;;;;;;;29.40;17.95;;;;;;;;;;143739;619;46010;-66
2022/03/19 06:44:08;;;;;;;24.08;15.07;;;;;;;;;;143740;600;45019;-65
2022/03/19 06:46:35;;;;;;;24.27;15.13;;;;;;;;;;143743;585;45022;-65
2022/03/19 06:49:02;;;;;;;33.28;18.83;;;;;;;;;;143737;686;48018;-65
2022/03/19 06:51:29;;;;;;;28.40;16.83;;;;;;;;;;143739;717;46010;-65
2022/03/19 06:53:56;;;;;;;32.92;18.85;;;;;;;;;;143739;576;45018;-65
2022/03/19 06:56:23;;;;;;;20.60;14.05;;;;;;;;;;143742;563;45022;-65
2022/03/19 06:58:51;;;;;;;20.37;12.48;;;;;;;;;;143740;593;47018;-65
2022/03/19 07:01:17;;;;;;;24.12;14.68;;;;;;;;;;143738;577;46010;-65
2022/03/19 07:03:46;;;;;;;21.35;12.40;;;;;;;;;;143735;621;46012;-65
2022/03/19 07:06:15;;;;;;;25.52;13.77;;;;;;;;;;143741;573;46023;-65
2022/03/19 07:08:42;;;;;;;21.33;12.15;;;;;;;;;;143738;570;47020;-65
2022/03/19 07:11:09;;;;;;;18.87;12.02;;;;;;;;;;143738;583;46011;-65
2022/03/19 07:13:37;;;;;;;18.25;11.10;;;;;;;;;;143738;573;45019;-65
2022/03/19 07:16:06;;;;;;;20.37;11.68;;;;;;;;;;143743;566;46022;-65
2022/03/19 07:18:34;;;;;;;17.92;11.32;;;;;;;;;;143739;576;47020;-65
2022/03/19 07:21:01;;;;;;;17.60;11.25;;;;;;;;;;143740;569;46011;-65
2022/03/19 07:23:27;;;;;;;15.38;10.15;;;;;;;;;;143739;573;45018;-65
2022/03/19 07:25:59;;;;;;;15.77;9.20;;;;;;;;;;143741;580;45022;-65
2022/03/19 07:28:27;;;;;;;11.98;8.57;;;;;;;;;;143731;691;47019;-65
2022/03/19 07:30:53;;;;;;;16.98;10.98;;;;;;;;;;143741;616;46026;-65
2022/03/19 07:33:21;;;;;;;15.18;8.95;;;;;;;;;;143742;593;45018;-65
2022/03/19 07:35:48;;;;;;;17.05;8.73;;;;;;;;;;143743;672;45023;-65
2022/03/19 07:38:15;;;;;;;12.40;8.52;;;;;;;;;;143740;597;47018;-65
2022/03/19 07:43:26;;;;;;;12.85;8.02;;;;;;;;;;143742;615;46045;-66
2022/03/19 07:45:53;;;;;;;15.07;8.93;;;;;;;;;;143741;596;46020;-66
2022/03/19 07:48:20;;;;;;;12.65;8.30;;;;;;;;;;143739;579;47018;-66
2022/03/19 07:50:47;;;;;;;12.82;7.93;;;;;;;;;;143738;608;46010;-65
2022/03/19 07:53:15;;;;;;;11.45;7.45;;;;;;;;;;143736;599;45018;-65
2022/03/19 07:55:42;;;;;;;13.32;7.15;;;;;;;;;;143738;569;46022;-66
2022/03/19 07:58:09;;;;;;;12.85;7.93;;;;;;;;;;143737;598;47019;-67
2022/03/19 08:00:36;;;;;;;12.43;7.68;;;;;;;;;;143739;596;47010;-67
2022/03/19 08:03:03;;;;;;;10.55;7.18;;;;;;;;;;143740;571;45913;-66
2022/03/19 08:05:30;;;;;;;9.55;6.75;;;;;;;;;;143742;570;46023;-66
2022/03/19 08:07:57;;;;;;;10.00;7.18;;;;;;;;;;143739;617;47018;-66
2022/03/19 08:10:24;;;;;;;9.80;6.80;;;;;;;;;;143740;591;46010;-66
2022/03/19 08:13:05;;;;;;;10.52;7.00;;;;;;;;;;143740;573;47019;-66
2022/03/19 08:15:32;;;;;;;10.95;7.10;;;;;;;;;;143742;569;46022;-66
2022/03/19 08:18:02;;;;;;;9.60;6.18;;;;;;;;;;143734;589;47018;-67
2022/03/19 08:20:29;;;;;;;16.85;7.55;;;;;;;;;;143740;629;46029;-67
2022/03/19 08:22:56;;;;;;;8.75;6.15;;;;;;;;;;143738;606;45018;-66
2022/03/19 08:25:24;;;;;;;10.82;7.05;;;;;;;;;;143742;572;45022;-66
2022/03/19 08:27:51;;;;;;;11.07;6.80;;;;;;;;;;143740;566;47018;-66
2022/03/19 08:30:19;;;;;;;12.52;6.85;;;;;;;;;;143737;564;47010;-66
2022/03/19 08:32:46;;;;;;;12.95;6.80;;;;;;;;;;143740;583;45020;-65
2022/03/19 08:35:13;;;;;;;15.85;7.40;;;;;;;;;;143742;566;45021;-66
2022/03/19 08:37:40;;;;;;;10.13;6.87;;;;;;;;;;143739;567;47020;-67
2022/03/19 08:40:16;;;;;;;10.63;7.00;;;;;;;;;;143740;577;45923;-66
2022/03/19 08:42:53;;;;;;;10.93;7.35;;;;;;;;;;143735;622;45912;-66
2022/03/19 08:45:21;;;;;;;9.13;6.65;;;;;;;;;;143744;672;46022;-67
2022/03/19 08:47:49;;;;;;;12.25;7.40;;;;;;;;;;143737;577;47018;-66
2022/03/19 08:50:17;;;;;;;10.90;6.87;;;;;;;;;;143740;618;46010;-66
2022/03/19 08:52:44;;;;;;;10.48;7.00;;;;;;;;;;143742;593;45018;-67
2022/03/19 08:55:11;;;;;;;10.88;6.70;;;;;;;;;;143744;569;45022;-67
2022/03/19 08:57:38;;;;;;;14.40;7.07;;;;;;;;;;143738;569;47041;-68
2022/03/19 09:00:07;;;;;;;10.45;7.70;;;;;;;;;;143738;574;46922;-67
2022/03/19 09:02:35;;;;;;;13.55;7.65;;;;;;;;;;143739;572;45018;-68
2022/03/19 09:05:02;;;;;;;18.12;9.05;;;;;;;;;;143743;579;46023;-67
2022/03/19 09:07:29;;;;;;;14.20;8.00;;;;;;;;;;143732;596;47018;-67
2022/03/19 09:09:55;;;;;;;15.73;8.45;;;;;;;;;;143740;589;46027;-66
2022/03/19 09:12:26;;;;;;;12.60;8.40;;;;;;;;;;143742;588;45019;-66
2022/03/19 09:14:54;;;;;;;11.70;6.87;;;;;;;;;;143744;569;46022;-66
2022/03/19 09:17:21;;;;;;;10.77;7.53;;;;;;;;;;143740;573;47018;-67
2022/03/19 09:19:48;;;;;;;12.52;7.22;;;;;;;;;;143739;608;46011;-66
2022/03/19 09:22:15;;;;;;;11.68;8.23;;;;;;;;;;143739;572;45018;-65
2022/03/19 09:24:42;;;;;;;11.95;7.95;;;;;;;;;;143741;590;47010;-66
2022/03/19 09:27:09;;;;;;;10.70;7.85;;;;;;;;;;143741;572;47018;-66
2022/03/19 09:29:36;;;;;;;15.00;8.40;;;;;;;;;;143738;601;47010;-66
2022/03/19 09:32:03;;;;;;;14.25;9.32;;;;;;;;;;143736;592;45018;-65
2022/03/19 09:34:30;;;;;;;12.75;8.45;;;;;;;;;;143744;585;45023;-65
2022/03/19 09:36:57;;;;;;;11.88;7.87;;;;;;;;;;143739;595;47018;-65
2022/03/19 09:39:25;;;;;;;12.73;7.57;;;;;;;;;;143737;565;47018;-66
2022/03/19 09:41:53;;;;;;;13.57;7.65;;;;;;;;;;143741;580;45019;-66
2022/03/19 09:44:25;;;;;;;16.95;7.68;;;;;;;;;;143743;583;46022;-65
2022/03/19 09:46:53;;;;;;;11.15;6.85;;;;;;;;;;143740;615;47018;-66
2022/03/19 09:49:20;;;;;;;12.30;7.05;;;;;;;;;;143737;573;47010;-65
2022/03/19 09:51:56;;;;;;;10.45;7.00;;;;;;;;;;143741;569;45018;-65
2022/03/19 09:54:24;;;;;;;13.10;7.00;;;;;;;;;;143744;596;45022;-65
2022/03/19 09:56:51;;;;;;;12.63;7.12;;;;;;;;;;143732;573;47020;-65
2022/03/19 09:59:19;;;;;;;12.40;7.60;;;;;;;;;;143738;682;47010;-65
2022/03/19 10:01:47;;;;;;;18.83;7.20;;;;;;;;;;143739;608;45018;-65
2022/03/19 10:04:19;;;;;;;13.38;8.10;;;;;;;;;;143744;615;46022;-65
2022/03/19 10:09:47;;;;;;;11.80;6.90;;;;;;;;;;143740;628;47023;-65
2022/03/19 10:12:20;;;;;;;16.00;8.82;;;;;;;;;;143740;564;45019;-65
2022/03/19 10:14:54;;;;;;;13.77;7.47;;;;;;;;;;143744;608;46022;-65
2022/03/19 10:17:35;;;;;;;11.10;7.27;;;;;;;;;;143739;574;47035;-64
2022/03/19 10:20:12;;;;;;;10.85;7.00;;;;;;;;;;143740;566;46011;-64
2022/03/19 10:22:44;;;;;;;11.05;6.78;;;;;;;;;;143737;590;45018;-64
2022/03/19 10:25:13;;;;;;;9.68;6.50;;;;;;;;;;143742;757;46022;-65
2022/03/19 10:27:42;;;;;;;11.32;7.40;;;;;;;;;;143740;674;47018;-65
2022/03/19 10:30:16;;;;;;;10.50;7.43;;;;;;;;;;143737;612;47010;-66
2022/03/19 10:32:47;;;;;;;10.15;6.85;;;;;;;;;;143740;612;45019;-65
2022/03/19 10:35:31;;;;;;;11.35;7.15;;;;;;;;;;143743;578;45023;-65
2022/03/19 10:37:59;;;;;;;14.07;7.25;;;;;;;;;;143740;592;47018;-64
2022/03/19 10:40:42;;;;;;;10.13;6.40;;;;;;;;;;143737;574;47010;-65
2022/03/19 10:43:11;;;;;;;11.48;7.07;;;;;;;;;;143740;605;45019;-65
2022/03/19 10:45:48;;;;;;;11.27;7.12;;;;;;;;;;143744;604;45022;-64
2022/03/19 10:48:28;;;;;;;13.05;6.22;;;;;;;;;;143730;636;48020;-65
2022/03/19 10:50:57;;;;;;;12.30;7.40;;;;;;;;;;143738;564;46010;-65
2022/03/19 10:53:25;;;;;;;10.02;7.12;;;;;;;;;;143741;577;45018;-65
2022/03/19 10:55:53;;;;;;;12.37;7.10;;;;;;;;;;143742;596;45023;-65
2022/03/19 10:58:20;;;;;;;15.35;7.53;;;;;;;;;;143740;634;47018;-65
2022/03/19 11:00:50;;;;;;;12.63;7.05;;;;;;;;;;143739;602;46010;-68
2022/03/19 11:03:30;;;;;;;11.65;7.80;;;;;;;;;;143739;653;45019;-66
2022/03/19 11:06:08;;;;;;;10.63;6.97;;;;;;;;;;143743;609;45023;-66
2022/03/19 11:08:38;;;;;;;62.38;24.63;;;;;;;;;;143741;573;47018;-67
2022/03/19 11:11:18;;;;;;;38.28;20.20;;;;;;;;;;143736;600;47027;-65
2022/03/19 11:13:49;;;;;;;23.35;12.95;;;;;;;;;;143736;613;45018;-66
2022/03/19 11:16:18;;;;;;;51.30;24.85;;;;;;;;;;143742;585;46022;-66
2022/03/19 11:18:47;;;;;;;27.75;14.27;;;;;;;;;;143739;587;47019;-66
2022/03/19 11:21:17;;;;;;;14.87;7.62;;;;;;;;;;143738;647;47010;-65
2022/03/19 11:24:23;;;;;;;12.02;8.35;;;;;;;;;;143739;573;45910;-65
2022/03/19 11:26:51;;;;;;;11.60;7.03;;;;;;;;;;143745;614;46023;-65
2022/03/19 11:29:19;;;;;;;10.20;7.32;;;;;;;;;;143741;610;47020;-66
2022/03/19 11:31:58;;;;;;;10.88;7.53;;;;;;;;;;143738;565;47010;-66
2022/03/19 11:34:25;;;;;;;16.77;7.75;;;;;;;;;;143740;618;45019;-67
2022/03/19 11:37:02;;;;;;;13.55;8.00;;;;;;;;;;143744;634;45022;-66
2022/03/19 11:39:29;;;;;;;11.18;6.32;;;;;;;;;;143734;573;47018;-65
2022/03/19 11:41:56;;;;;;;11.35;6.82;;;;;;;;;;143741;573;46029;-65
2022/03/19 11:44:24;;;;;;;10.68;7.00;;;;;;;;;;143740;594;45018;-65
2022/03/19 11:47:13;;;;;;;11.63;7.35;;;;;;;;;;143745;636;45592;-66
2022/03/19 11:49:53;;;;;;;14.13;6.78;;;;;;;;;;143741;564;47021;-65
2022/03/19 11:52:59;;;;;;;14.82;7.85;;;;;;;;;;143737;577;48010;-64
2022/03/19 11:55:29;;;;;;;;;;;;;;;;;;143743;980;46011;-65
2022/03/19 11:58:03;;;;;;;12.15;7.10;;;;;;;;;;143748;578;46026;-65
2022/03/19 12:00:33;;;;;;;11.48;7.78;;;;;;;;;;143740;576;47018;-64
2022/03/19 12:03:17;;;;;;;11.55;7.50;;;;;;;;;;143739;581;47010;-64
2022/03/19 12:05:49;;;;;;;11.95;7.25;;;;;;;;;;143737;586;45018;-65
2022/03/19 12:08:20;;;;;;;12.35;7.45;;;;;;;;;;143745;619;45022;-65
2022/03/19 12:11:13;;;;;;;11.73;7.57;;;;;;;;;;143740;573;47020;-65
2022/03/19 12:13:42;;;;;;;11.70;7.28;;;;;;;;;;143739;587;47010;-65
2022/03/19 12:16:12;;;;;;;9.88;6.78;;;;;;;;;;143740;734;45018;-64
2022/03/19 12:18:46;;;;;;;12.93;7.70;;;;;;;;;;143744;593;45023;-64
2022/03/19 12:21:21;;;;;;;14.63;8.45;;;;;;;;;;143739;583;47018;-64
2022/03/19 12:24:18;;;;;;;14.80;8.65;;;;;;;;;;143739;688;47010;-65
2022/03/19 12:26:49;;;;;;;12.85;7.93;;;;;;;;;;143739;582;45019;-65
2022/03/19 12:29:18;;;;;;;12.95;8.25;;;;;;;;;;143745;577;45022;-65
2022/03/19 12:31:50;;;;;;;20.02;8.48;;;;;;;;;;143733;594;47019;-64
2022/03/19 12:34:22;;;;;;;16.83;8.65;;;;;;;;;;143740;566;46011;-65
2022/03/19 12:36:52;;;;;;;14.87;8.38;;;;;;;;;;143740;575;45018;-65
2022/03/19 12:39:19;;;;;;;14.27;8.05;;;;;;;;;;143744;565;45023;-64
2022/03/19 12:41:46;;;;;;;13.15;7.85;;;;;;;;;;143739;625;47018;-65
2022/03/19 12:44:29;;;;;;;12.70;8.90;;;;;;;;;;143741;587;46010;-65
2022/03/19 12:47:04;;;;;;;17.90;9.85;;;;;;;;;;143742;576;45019;-65
2022/03/19 12:49:32;;;;;;;14.75;8.52;;;;;;;;;;143745;571;46023;-65
2022/03/19 12:52:10;;;;;;;17.23;8.75;;;;;;;;;;143742;617;47018;-65
2022/03/19 12:54:44;;;;;;;20.23;9.15;;;;;;;;;;143740;580;47011;-65
2022/03/19 12:57:14;;;;;;;11.20;7.80;;;;;;;;;;143734;581;46018;-64
2022/03/19 12:59:57;;;;;;;12.77;7.93;;;;;;;;;;143746;625;45022;-65
2022/03/19 13:02:25;;;;;;;11.50;7.65;;;;;;;;;;143742;591;47019;-64
2022/03/19 13:04:52;;;;;;;12.80;8.52;;;;;;;;;;143738;580;47010;-65
2022/03/19 13:07:19;;;;;;;16.15;8.60;;;;;;;;;;143743;592;45018;-64
2022/03/19 13:09:46;;;;;;;14.38;8.52;;;;;;;;;;143743;591;46010;-64
2022/03/19 13:12:18;;;;;;;13.88;7.87;;;;;;;;;;143742;628;47018;-64
2022/03/19 13:14:55;;;;;;;14.95;8.80;;;;;;;;;;143740;623;47010;-64
2022/03/19 13:17:23;;;;;;;10.77;7.93;;;;;;;;;;143740;633;45910;-64
2022/03/19 13:19:50;;;;;;;18.40;9.60;;;;;;;;;;143745;569;45023;-65
2022/03/19 13:22:21;;;;;;;12.80;8.18;;;;;;;;;;143734;653;47020;-64
2022/03/19 13:24:56;;;;;;;14.25;8.95;;;;;;;;;;143740;616;46010;-65
2022/03/19 13:27:28;;;;;;;13.88;8.70;;;;;;;;;;143745;635;45018;-64
2022/03/19 13:30:10;;;;;;;13.82;7.40;;;;;;;;;;143744;597;45022;-65
2022/03/19 13:32:37;;;;;;;13.07;8.60;;;;;;;;;;143743;599;47019;-64
2022/03/19 13:35:05;;;;;;;12.23;7.62;;;;;;;;;;143742;570;46010;-64
2022/03/19 13:37:39;;;;;;;13.07;7.72;;;;;;;;;;143743;584;45018;-65
2022/03/19 13:40:07;;;;;;;11.60;8.07;;;;;;;;;;143746;609;45023;-65
2022/03/19 13:42:38;;;;;;;13.40;9.00;;;;;;;;;;143742;576;47018;-65
2022/03/19 13:45:13;;;;;;;12.73;8.30;;;;;;;;;;143743;593;46010;-65
2022/03/19 13:47:52;;;;;;;10.45;7.72;;;;;;;;;;143739;623;45019;-65
2022/03/19 13:50:21;;;;;;;13.80;7.80;;;;;;;;;;143746;583;46022;-64
2022/03/19 13:52:55;;;;;;;14.45;8.38;;;;;;;;;;143741;566;47018;-65
2022/03/19 13:55:42;;;;;;;12.57;8.32;;;;;;;;;;143742;591;46011;-65
2022/03/19 13:58:14;;;;;;;11.45;8.05;;;;;;;;;;143743;581;45020;-65
2022/03/19 14:00:43;;;;;;;16.02;7.97;;;;;;;;;;143746;620;45022;-65
2022/03/19 14:03:12;;;;;;;13.07;6.70;;;;;;;;;;143743;585;47019;-65
2022/03/19 14:05:51;;;;;;;15.07;8.52;;;;;;;;;;143739;660;47010;-65
2022/03/19 14:08:22;;;;;;;12.85;7.43;;;;;;;;;;143741;590;45018;-65
2022/03/19 14:10:51;;;;;;;16.60;8.23;;;;;;;;;;143745;592;45023;-65
2022/03/19 14:13:20;;;;;;;12.40;7.37;;;;;;;;;;143736;652;47018;-65
2022/03/19 14:15:57;;;;;;;10.20;7.05;;;;;;;;;;143739;624;47010;-65
2022/03/19 14:18:29;;;;;;;11.10;6.93;;;;;;;;;;143743;640;45019;-65
2022/03/19 14:20:59;;;;;;;11.93;7.43;;;;;;;;;;143745;579;45022;-66
2022/03/19 14:23:26;;;;;;;10.80;6.95;;;;;;;;;;143742;582;47019;-65
2022/03/19 14:25:54;;;;;;;12.77;7.20;;;;;;;;;;143741;620;46010;-65
2022/03/19 14:28:23;;;;;;;8.18;5.90;;;;;;;;;;143741;607;45034;-65
2022/03/19 14:30:51;;;;;;;11.32;6.97;;;;;;;;;;143745;570;46022;-65
2022/03/19 14:33:20;;;;;;;10.02;6.50;;;;;;;;;;143740;572;47018;-65
2022/03/19 14:36:04;;;;;;;11.85;6.70;;;;;;;;;;143741;606;47012;-64
2022/03/19 14:38:42;;;;;;;11.18;6.90;;;;;;;;;;143738;623;45019;-66
2022/03/19 14:41:15;;;;;;;10.05;6.20;;;;;;;;;;143746;570;45023;-65
2022/03/19 14:43:46;;;;;;;9.60;6.97;;;;;;;;;;143739;657;47018;-66
2022/03/19 14:46:13;;;;;;;9.98;6.15;;;;;;;;;;143742;611;46031;-66
2022/03/19 14:48:42;;;;;;;13.02;6.78;;;;;;;;;;143743;650;45019;-65
2022/03/19 14:51:10;;;;;;;20.27;8.05;;;;;;;;;;143744;624;46022;-65
2022/03/19 14:53:41;;;;;;;10.73;6.37;;;;;;;;;;143742;587;47020;-65
2022/03/19 14:56:11;;;;;;;8.52;5.97;;;;;;;;;;143741;566;46012;-65
2022/03/19 14:58:39;;;;;;;12.02;6.93;;;;;;;;;;143741;658;45018;-65